Valdez, AK

6:41 PM AKDT on June 25, 2017 (GMT -0800)
Valdez Airport | | Change Station

Elev 118 ft 61.13 °N, 146.25 °W | Updated 5 minutes ago

Partly Cloudy
Partly Cloudy
64 °F
Feels Like 64 °F
N
9
Wind Variable Wind from WSW

Today
High -- | Low -- °F
--% Chance of Precip.
Yesterday
High -- | Low -- °F
Precip. -- in
Pressure 29.93 in
Visibility 10.0 miles
Clouds Few 5500 ft
Few 12000 ft
Scattered Clouds 20000 ft
Dew Point 48 °F
Humidity 56%
Rainfall 0.03 in
Snow Depth Not available.
4:08 AM 11:26 PM
Waxing Crescent, 6% visible
METAR PAVD 260236Z 25008KT 10SM FEW055 FEW120 SCT200 18/09 A2993 RMK AO1 0147Z WEA: NONE TWR WND 21008KT
Pressure 29.93 in
Visibility 10.0 miles
Clouds Few 5500 ft
Few 12000 ft
Scattered Clouds 20000 ft
Dew Point 48 °F
Humidity 56%
Rainfall 0.03 in
Snow Depth Not available.
4:08 AM 11:26 PM
Waxing Crescent, 6% visible
METAR PAVD 260236Z 25008KT 10SM FEW055 FEW120 SCT200 18/09 A2993 RMK AO1 0147Z WEA: NONE TWR WND 21008KT

Get Severe Weather Alerts

Thanks for signing up!

Be on the lookout for a verification email in your inbox.

You'll start receiving the daily forecast at 6 AM.

×

10-Day Weather Forecast

Almanac

Astronomy

Jun. 25, 2017 Rise Set
Actual Time
Civil Twilight
Nautical Twilight
Astronomical Twilight
Moon
Length of Visible Light
Length of Day
Tomorrow will be .
, % of the Moon is Illuminated

Today's Extremes

State Highs State Lows

Community

WunderPhotos

Category 6

Welcome to Category 6. This is the collective home for Weather Underground's featured writeups by Dr. Jeff Masters (right), Bob Henson (left), Chris Burt, and other regular contributors.

Nearby

Air Quality

  Air Quality AQ Index Pollutant
Not available.

Snow Depth

Station Depth Elevation

Earthquake Activity

City Distance Mag. Time & Date
Minimum magnitude displayed is 2.5.

Coastal Water Temperatures

Place Temperature

Stations

Nearby Weather Stations

Station Location Temp. Windchill Dew Point Humidity Wind Precip. Elev Updated Type
                   

Watches & Warnings

There are currently no watches in effect.